Seiyo Maru — JMFG — position and weather

sailwx.info

Track history (hours):
 
Tides and Currents Weather Stations Pressure Air Temp Water Temp Dewpoint Dewpoint Depression Visibility Wind Speed Wind Dir Waves Ship Positions

Oceanographic research ship Seiyo Maru (Japan)

Detailed information on ship capabilities available from University of Delaware's Ocean Information Center.

Last reported at 2019-Apr-16 04:07 UTC. Time now 2019-Apr-19 10:34 UTC.
Position N 35°22' E 139°42'.

Length 36 m; beam 7 m.

Type: Other ship. MMSI: 431431000.

Date/timePositionNaut miles runAvg speedWind from/ knotsBaromVisibWave heightAir tempDewpointWater temp
2019-Apr-16 04:07N 35°22' E 139°42'1 7.9
2019-Apr-16 04:00N 35°23' E 139°42'7 4.4
2019-Apr-16 02:20N 35°28' E 139°48'  
2019-Apr-13 03:17N 35°28' E 139°47'2 8.2
2019-Apr-13 02:59N 35°27' E 139°45'4 8.2
2019-Apr-13 02:29N 35°23' E 139°42'3 0.1
2019-Apr-12 03:37N 35°20' E 139°42'2 8.7
2019-Apr-12 03:22N 35°22' E 139°42'6 8.5
2019-Apr-12 02:40N 35°27' E 139°46'0 0.0
2019-Apr-10 23:44N 35°27' E 139°46'2 7.8
2019-Apr-10 23:30N 35°26' E 139°45'4 7.6
2019-Apr-10 23:00N 35°23' E 139°42'4 7.9
2019-Apr-10 22:27N 35°19' E 139°42'1 0.1
2019-Apr-10 06:25N 35°18' E 139°42'4 1.4
2019-Apr-10 03:22N 35°22' E 139°42'4 8.5
2019-Apr-10 02:54N 35°25' E 139°44'4 8.9
2019-Apr-10 02:28N 35°28' E 139°47'3 0.2
2019-Apr-09 05:10N 35°26' E 139°44'1 8.3
2019-Apr-09 05:00N 35°25' E 139°43'4 7.9
2019-Apr-09 04:30N 35°22' E 139°41'1 0.1
2019-Apr-08 03:43N 35°20' E 139°42'2 8.3
2019-Apr-08 03:30N 35°22' E 139°42'5 8.2
2019-Apr-08 02:53N 35°26' E 139°45'  
Track history (hours):
 
Tides and Currents Weather Stations Pressure Air Temp Water Temp Dewpoint Dewpoint Depression Visibility Wind Speed Wind Dir Waves Ship Positions

Oceanographic research ship Seiyo Maru (Japan)

Detailed information on ship capabilities available from University of Delaware's Ocean Information Center.

Last reported at 2019-Apr-16 04:07 UTC. Time now 2019-Apr-19 10:34 UTC.
Position N 35°22' E 139°42'.

Length 36 m; beam 7 m.

Type: Other ship. MMSI: 431431000.

Date/timePositionNaut miles runAvg speedWind from/ knotsBaromVisibWave heightAir tempDewpointWater temp
2019-Apr-16 04:07N 35°22' E 139°42'1 7.9
2019-Apr-16 04:00N 35°23' E 139°42'7 4.4
2019-Apr-16 02:20N 35°28' E 139°48'  
2019-Apr-13 03:17N 35°28' E 139°47'2 8.2
2019-Apr-13 02:59N 35°27' E 139°45'4 8.2
2019-Apr-13 02:29N 35°23' E 139°42'3 0.1
2019-Apr-12 03:37N 35°20' E 139°42'2 8.7
2019-Apr-12 03:22N 35°22' E 139°42'6 8.5
2019-Apr-12 02:40N 35°27' E 139°46'0 0.0
2019-Apr-10 23:44N 35°27' E 139°46'2 7.8
2019-Apr-10 23:30N 35°26' E 139°45'4 7.6
2019-Apr-10 23:00N 35°23' E 139°42'4 7.9
2019-Apr-10 22:27N 35°19' E 139°42'1 0.1
2019-Apr-10 06:25N 35°18' E 139°42'4 1.4
2019-Apr-10 03:22N 35°22' E 139°42'4 8.5
2019-Apr-10 02:54N 35°25' E 139°44'4 8.9
2019-Apr-10 02:28N 35°28' E 139°47'3 0.2
2019-Apr-09 05:10N 35°26' E 139°44'1 8.3
2019-Apr-09 05:00N 35°25' E 139°43'4 7.9
2019-Apr-09 04:30N 35°22' E 139°41'1 0.1
2019-Apr-08 03:43N 35°20' E 139°42'2 8.3
2019-Apr-08 03:30N 35°22' E 139°42'5 8.2
2019-Apr-08 02:53N 35°26' E 139°45'  

Dump ship's entire track history